sensor_id;sensor_type;location;lat;lon;timestamp;temperature;humidity
37340;DHT22;23223;51.006;7.610;2023-09-19T00:00:26;16.70;99.90
37340;DHT22;23223;51.006;7.610;2023-09-19T00:02:54;16.80;99.90
37340;DHT22;23223;51.006;7.610;2023-09-19T00:05:20;16.90;99.90
37340;DHT22;23223;51.006;7.610;2023-09-19T00:07:50;17.00;99.90
37340;DHT22;23223;51.006;7.610;2023-09-19T00:10:16;17.10;99.90
37340;DHT22;23223;51.006;7.610;2023-09-19T00:12:45;17.10;99.90
37340;DHT22;23223;51.006;7.610;2023-09-19T00:15:11;17.00;99.90
37340;DHT22;23223;51.006;7.610;2023-09-19T00:17:36;16.90;99.90
37340;DHT22;23223;51.006;7.610;2023-09-19T00:20:03;16.80;99.90
37340;DHT22;23223;51.006;7.610;2023-09-19T00:22:32;16.70;99.90
37340;DHT22;23223;51.006;7.610;2023-09-19T00:24:58;16.60;99.90
37340;DHT22;23223;51.006;7.610;2023-09-19T00:27:24;16.50;99.90
37340;DHT22;23223;51.006;7.610;2023-09-19T00:29:49;16.50;99.90
37340;DHT22;23223;51.006;7.610;2023-09-19T00:32:15;16.50;99.90
37340;DHT22;23223;51.006;7.610;2023-09-19T00:34:40;16.50;99.90
37340;DHT22;23223;51.006;7.610;2023-09-19T00:37:07;16.50;99.90
37340;DHT22;23223;51.006;7.610;2023-09-19T00:39:33;16.50;99.90
37340;DHT22;23223;51.006;7.610;2023-09-19T00:41:58;16.60;99.90
37340;DHT22;23223;51.006;7.610;2023-09-19T00:44:30;16.50;99.90
37340;DHT22;23223;51.006;7.610;2023-09-19T00:46:58;16.30;99.90
37340;DHT22;23223;51.006;7.610;2023-09-19T00:49:24;16.30;99.90
37340;DHT22;23223;51.006;7.610;2023-09-19T00:51:51;16.30;99.90
37340;DHT22;23223;51.006;7.610;2023-09-19T00:54:18;16.30;99.90
37340;DHT22;23223;51.006;7.610;2023-09-19T00:56:45;16.10;99.90
37340;DHT22;23223;51.006;7.610;2023-09-19T00:59:11;15.90;99.90
37340;DHT22;23223;51.006;7.610;2023-09-19T01:01:37;15.80;99.90
37340;DHT22;23223;51.006;7.610;2023-09-19T01:04:05;15.80;99.90
37340;DHT22;23223;51.006;7.610;2023-09-19T01:06:31;15.80;99.90
37340;DHT22;23223;51.006;7.610;2023-09-19T01:08:57;16.10;99.90
37340;DHT22;23223;51.006;7.610;2023-09-19T01:11:38;16.20;99.90
37340;DHT22;23223;51.006;7.610;2023-09-19T01:14:44;16.00;99.90
37340;DHT22;23223;51.006;7.610;2023-09-19T01:17:31;16.00;99.90
37340;DHT22;23223;51.006;7.610;2023-09-19T01:23:19;16.00;99.90
37340;DHT22;23223;51.006;7.610;2023-09-19T01:26:10;15.80;99.90
37340;DHT22;23223;51.006;7.610;2023-09-19T01:31:12;15.60;99.90
37340;DHT22;23223;51.006;7.610;2023-09-19T01:33:55;15.60;99.90
37340;DHT22;23223;51.006;7.610;2023-09-19T01:36:23;15.60;99.90
37340;DHT22;23223;51.006;7.610;2023-09-19T01:38:50;15.50;99.90
37340;DHT22;23223;51.006;7.610;2023-09-19T01:41:26;15.60;99.90
37340;DHT22;23223;51.006;7.610;2023-09-19T01:43:55;15.70;99.90
37340;DHT22;23223;51.006;7.610;2023-09-19T01:46:25;15.80;99.90
37340;DHT22;23223;51.006;7.610;2023-09-19T01:49:23;16.00;99.90
37340;DHT22;23223;51.006;7.610;2023-09-19T01:52:03;16.20;99.90
37340;DHT22;23223;51.006;7.610;2023-09-19T01:54:34;16.30;99.90
37340;DHT22;23223;51.006;7.610;2023-09-19T01:57:12;16.40;99.90
37340;DHT22;23223;51.006;7.610;2023-09-19T01:59:52;16.40;99.90
37340;DHT22;23223;51.006;7.610;2023-09-19T02:02:21;16.50;99.90
37340;DHT22;23223;51.006;7.610;2023-09-19T02:04:51;16.50;99.90
37340;DHT22;23223;51.006;7.610;2023-09-19T02:07:17;16.50;99.90
37340;DHT22;23223;51.006;7.610;2023-09-19T02:09:43;16.60;99.90
37340;DHT22;23223;51.006;7.610;2023-09-19T02:12:09;16.80;99.90
37340;DHT22;23223;51.006;7.610;2023-09-19T02:14:35;16.80;99.90
37340;DHT22;23223;51.006;7.610;2023-09-19T02:17:02;16.80;99.90
37340;DHT22;23223;51.006;7.610;2023-09-19T02:19:32;16.80;99.90
37340;DHT22;23223;51.006;7.610;2023-09-19T02:21:59;16.60;99.90
37340;DHT22;23223;51.006;7.610;2023-09-19T02:24:25;16.40;99.90
37340;DHT22;23223;51.006;7.610;2023-09-19T02:26:52;16.40;99.90
37340;DHT22;23223;51.006;7.610;2023-09-19T02:29:18;16.60;99.90
37340;DHT22;23223;51.006;7.610;2023-09-19T02:31:43;16.90;99.90
37340;DHT22;23223;51.006;7.610;2023-09-19T02:34:11;16.90;99.90
37340;DHT22;23223;51.006;7.610;2023-09-19T02:36:37;16.90;99.90
37340;DHT22;23223;51.006;7.610;2023-09-19T02:39:03;16.70;99.90
37340;DHT22;23223;51.006;7.610;2023-09-19T02:41:30;16.40;99.90
37340;DHT22;23223;51.006;7.610;2023-09-19T02:43:57;16.40;99.90
37340;DHT22;23223;51.006;7.610;2023-09-19T02:46:24;16.30;99.90
37340;DHT22;23223;51.006;7.610;2023-09-19T02:48:50;16.10;99.90
37340;DHT22;23223;51.006;7.610;2023-09-19T02:51:15;16.00;99.90
37340;DHT22;23223;51.006;7.610;2023-09-19T02:53:41;15.90;99.90
37340;DHT22;23223;51.006;7.610;2023-09-19T02:56:07;15.90;99.90
37340;DHT22;23223;51.006;7.610;2023-09-19T02:58:35;16.00;99.90
37340;DHT22;23223;51.006;7.610;2023-09-19T03:01:08;16.10;99.90
37340;DHT22;23223;51.006;7.610;2023-09-19T03:03:34;16.10;99.90
37340;DHT22;23223;51.006;7.610;2023-09-19T03:05:59;16.00;99.90
37340;DHT22;23223;51.006;7.610;2023-09-19T03:08:29;16.00;99.90
37340;DHT22;23223;51.006;7.610;2023-09-19T03:10:55;16.00;99.90
37340;DHT22;23223;51.006;7.610;2023-09-19T03:13:20;16.10;99.90
37340;DHT22;23223;51.006;7.610;2023-09-19T03:15:46;16.10;99.90
37340;DHT22;23223;51.006;7.610;2023-09-19T03:18:15;16.10;99.90
37340;DHT22;23223;51.006;7.610;2023-09-19T03:20:41;15.90;99.90
37340;DHT22;23223;51.006;7.610;2023-09-19T03:23:07;15.60;99.90
37340;DHT22;23223;51.006;7.610;2023-09-19T03:25:36;15.50;99.90
37340;DHT22;23223;51.006;7.610;2023-09-19T03:28:03;15.40;99.90
37340;DHT22;23223;51.006;7.610;2023-09-19T03:30:31;15.40;99.90
37340;DHT22;23223;51.006;7.610;2023-09-19T03:32:58;15.30;99.90
37340;DHT22;23223;51.006;7.610;2023-09-19T03:35:24;15.40;99.90
37340;DHT22;23223;51.006;7.610;2023-09-19T03:37:50;15.50;99.90
37340;DHT22;23223;51.006;7.610;2023-09-19T03:40:17;15.50;99.90
37340;DHT22;23223;51.006;7.610;2023-09-19T03:42:45;15.60;99.90
37340;DHT22;23223;51.006;7.610;2023-09-19T03:45:13;15.70;99.90
37340;DHT22;23223;51.006;7.610;2023-09-19T03:47:39;15.90;99.90
37340;DHT22;23223;51.006;7.610;2023-09-19T03:50:05;15.70;99.90
37340;DHT22;23223;51.006;7.610;2023-09-19T03:52:32;15.60;99.90
37340;DHT22;23223;51.006;7.610;2023-09-19T03:54:58;15.60;99.90
37340;DHT22;23223;51.006;7.610;2023-09-19T03:57:23;15.60;99.90
37340;DHT22;23223;51.006;7.610;2023-09-19T03:59:49;15.60;99.90
37340;DHT22;23223;51.006;7.610;2023-09-19T04:02:15;15.50;99.90
37340;DHT22;23223;51.006;7.610;2023-09-19T04:04:51;15.50;99.90
37340;DHT22;23223;51.006;7.610;2023-09-19T04:07:17;15.60;99.90
37340;DHT22;23223;51.006;7.610;2023-09-19T04:09:44;15.50;99.90
37340;DHT22;23223;51.006;7.610;2023-09-19T04:12:14;15.50;99.90
37340;DHT22;23223;51.006;7.610;2023-09-19T04:14:42;15.40;99.90
37340;DHT22;23223;51.006;7.610;2023-09-19T04:17:08;15.20;99.90
37340;DHT22;23223;51.006;7.610;2023-09-19T04:19:33;15.30;99.90
37340;DHT22;23223;51.006;7.610;2023-09-19T04:21:59;15.30;99.90
37340;DHT22;23223;51.006;7.610;2023-09-19T04:24:24;15.30;99.90
37340;DHT22;23223;51.006;7.610;2023-09-19T04:26:50;15.20;99.90
37340;DHT22;23223;51.006;7.610;2023-09-19T04:29:16;15.30;99.90
37340;DHT22;23223;51.006;7.610;2023-09-19T04:31:41;15.20;99.90
37340;DHT22;23223;51.006;7.610;2023-09-19T04:34:09;15.10;99.90
37340;DHT22;23223;51.006;7.610;2023-09-19T04:36:35;15.00;99.90
37340;DHT22;23223;51.006;7.610;2023-09-19T04:39:02;14.90;99.90
37340;DHT22;23223;51.006;7.610;2023-09-19T04:41:30;14.90;99.90
37340;DHT22;23223;51.006;7.610;2023-09-19T04:43:56;14.90;99.90
37340;DHT22;23223;51.006;7.610;2023-09-19T04:46:21;14.80;99.90
37340;DHT22;23223;51.006;7.610;2023-09-19T04:48:47;14.80;99.90
37340;DHT22;23223;51.006;7.610;2023-09-19T04:51:12;14.80;99.90
37340;DHT22;23223;51.006;7.610;2023-09-19T04:53:39;14.70;99.90
37340;DHT22;23223;51.006;7.610;2023-09-19T04:56:04;14.60;99.90
37340;DHT22;23223;51.006;7.610;2023-09-19T04:58:32;14.60;99.90
37340;DHT22;23223;51.006;7.610;2023-09-19T05:00:57;14.50;99.90
37340;DHT22;23223;51.006;7.610;2023-09-19T05:03:23;14.50;99.90
37340;DHT22;23223;51.006;7.610;2023-09-19T05:05:48;14.50;99.90
37340;DHT22;23223;51.006;7.610;2023-09-19T05:08:14;14.60;99.90
37340;DHT22;23223;51.006;7.610;2023-09-19T05:10:40;14.70;99.90
37340;DHT22;23223;51.006;7.610;2023-09-19T05:13:06;14.60;99.90
37340;DHT22;23223;51.006;7.610;2023-09-19T05:15:33;14.60;99.90
37340;DHT22;23223;51.006;7.610;2023-09-19T05:17:59;14.60;99.90
37340;DHT22;23223;51.006;7.610;2023-09-19T05:20:25;14.50;99.90
37340;DHT22;23223;51.006;7.610;2023-09-19T05:23:05;14.40;99.90
37340;DHT22;23223;51.006;7.610;2023-09-19T05:25:35;14.30;99.90
37340;DHT22;23223;51.006;7.610;2023-09-19T05:28:08;14.20;99.90
37340;DHT22;23223;51.006;7.610;2023-09-19T05:30:35;14.10;99.90
37340;DHT22;23223;51.006;7.610;2023-09-19T05:33:02;14.00;99.90
37340;DHT22;23223;51.006;7.610;2023-09-19T05:35:28;14.00;99.90
37340;DHT22;23223;51.006;7.610;2023-09-19T05:37:54;14.10;99.90
37340;DHT22;23223;51.006;7.610;2023-09-19T05:40:20;14.20;99.90
37340;DHT22;23223;51.006;7.610;2023-09-19T05:42:47;14.30;99.90
37340;DHT22;23223;51.006;7.610;2023-09-19T05:45:13;14.30;99.90
37340;DHT22;23223;51.006;7.610;2023-09-19T05:47:42;14.30;99.90
37340;DHT22;23223;51.006;7.610;2023-09-19T05:50:12;14.30;99.90
37340;DHT22;23223;51.006;7.610;2023-09-19T05:52:38;14.50;99.90
37340;DHT22;23223;51.006;7.610;2023-09-19T05:55:07;14.50;99.90
37340;DHT22;23223;51.006;7.610;2023-09-19T05:57:34;14.50;99.90
37340;DHT22;23223;51.006;7.610;2023-09-19T05:59:59;14.40;99.90
37340;DHT22;23223;51.006;7.610;2023-09-19T06:02:25;14.30;99.90
37340;DHT22;23223;51.006;7.610;2023-09-19T06:04:54;14.30;99.90
37340;DHT22;23223;51.006;7.610;2023-09-19T06:07:24;14.40;99.90
37340;DHT22;23223;51.006;7.610;2023-09-19T06:09:52;14.50;99.90
37340;DHT22;23223;51.006;7.610;2023-09-19T06:12:19;14.50;99.90
37340;DHT22;23223;51.006;7.610;2023-09-19T06:14:45;14.60;99.90
37340;DHT22;23223;51.006;7.610;2023-09-19T06:17:10;14.70;99.90
37340;DHT22;23223;51.006;7.610;2023-09-19T06:19:36;14.70;99.90
37340;DHT22;23223;51.006;7.610;2023-09-19T06:22:01;14.70;99.90
37340;DHT22;23223;51.006;7.610;2023-09-19T06:24:27;14.70;99.90
37340;DHT22;23223;51.006;7.610;2023-09-19T06:26:53;14.80;99.90
37340;DHT22;23223;51.006;7.610;2023-09-19T06:29:20;15.00;99.90
37340;DHT22;23223;51.006;7.610;2023-09-19T06:31:48;15.00;99.90
37340;DHT22;23223;51.006;7.610;2023-09-19T06:34:14;15.20;99.90
37340;DHT22;23223;51.006;7.610;2023-09-19T06:36:41;15.20;99.90
37340;DHT22;23223;51.006;7.610;2023-09-19T06:39:07;15.30;99.90
37340;DHT22;23223;51.006;7.610;2023-09-19T06:41:37;15.40;99.90
37340;DHT22;23223;51.006;7.610;2023-09-19T06:44:03;15.50;99.90
37340;DHT22;23223;51.006;7.610;2023-09-19T06:46:30;15.60;99.90
37340;DHT22;23223;51.006;7.610;2023-09-19T06:49:00;15.60;99.90
37340;DHT22;23223;51.006;7.610;2023-09-19T06:51:28;15.70;99.90
37340;DHT22;23223;51.006;7.610;2023-09-19T06:53:55;15.80;99.90
37340;DHT22;23223;51.006;7.610;2023-09-19T06:56:22;15.90;99.90
37340;DHT22;23223;51.006;7.610;2023-09-19T06:58:50;15.70;99.90
37340;DHT22;23223;51.006;7.610;2023-09-19T07:01:15;15.70;99.90
37340;DHT22;23223;51.006;7.610;2023-09-19T07:03:41;15.80;99.90
37340;DHT22;23223;51.006;7.610;2023-09-19T07:06:06;15.80;99.90
37340;DHT22;23223;51.006;7.610;2023-09-19T07:08:34;16.00;99.90
37340;DHT22;23223;51.006;7.610;2023-09-19T07:10:59;16.10;99.90
37340;DHT22;23223;51.006;7.610;2023-09-19T07:13:25;16.40;99.90
37340;DHT22;23223;51.006;7.610;2023-09-19T07:15:51;16.50;99.90
37340;DHT22;23223;51.006;7.610;2023-09-19T07:18:17;16.50;99.90
37340;DHT22;23223;51.006;7.610;2023-09-19T07:20:44;16.30;99.90
37340;DHT22;23223;51.006;7.610;2023-09-19T07:23:19;16.30;99.90
37340;DHT22;23223;51.006;7.610;2023-09-19T07:25:48;16.50;99.90
37340;DHT22;23223;51.006;7.610;2023-09-19T07:28:14;16.60;99.90
37340;DHT22;23223;51.006;7.610;2023-09-19T07:30:40;16.70;99.90
37340;DHT22;23223;51.006;7.610;2023-09-19T07:33:07;16.70;99.90
37340;DHT22;23223;51.006;7.610;2023-09-19T07:35:37;16.80;99.90
37340;DHT22;23223;51.006;7.610;2023-09-19T07:38:05;17.00;99.90
37340;DHT22;23223;51.006;7.610;2023-09-19T07:40:30;16.90;99.90
37340;DHT22;23223;51.006;7.610;2023-09-19T07:42:56;16.90;99.90
37340;DHT22;23223;51.006;7.610;2023-09-19T07:45:22;17.00;99.90
37340;DHT22;23223;51.006;7.610;2023-09-19T07:47:51;17.10;99.90
37340;DHT22;23223;51.006;7.610;2023-09-19T07:50:18;17.00;99.90
37340;DHT22;23223;51.006;7.610;2023-09-19T07:52:44;17.00;99.90
37340;DHT22;23223;51.006;7.610;2023-09-19T07:55:10;16.80;99.90
37340;DHT22;23223;51.006;7.610;2023-09-19T07:57:37;16.90;99.90
37340;DHT22;23223;51.006;7.610;2023-09-19T08:00:03;17.10;99.90
37340;DHT22;23223;51.006;7.610;2023-09-19T08:02:34;17.10;99.90
37340;DHT22;23223;51.006;7.610;2023-09-19T08:04:59;17.30;99.90
37340;DHT22;23223;51.006;7.610;2023-09-19T08:07:26;17.30;99.90
37340;DHT22;23223;51.006;7.610;2023-09-19T08:09:51;17.40;99.90
37340;DHT22;23223;51.006;7.610;2023-09-19T08:12:17;17.40;99.90
37340;DHT22;23223;51.006;7.610;2023-09-19T08:14:43;17.60;99.90
37340;DHT22;23223;51.006;7.610;2023-09-19T08:17:09;17.60;99.90
37340;DHT22;23223;51.006;7.610;2023-09-19T08:19:34;17.50;99.90
37340;DHT22;23223;51.006;7.610;2023-09-19T08:22:02;17.70;99.90
37340;DHT22;23223;51.006;7.610;2023-09-19T08:24:31;17.70;99.90
37340;DHT22;23223;51.006;7.610;2023-09-19T08:26:58;17.60;99.90
37340;DHT22;23223;51.006;7.610;2023-09-19T08:29:25;17.50;99.90
37340;DHT22;23223;51.006;7.610;2023-09-19T08:31:57;17.60;99.90
37340;DHT22;23223;51.006;7.610;2023-09-19T08:34:24;17.80;99.90
37340;DHT22;23223;51.006;7.610;2023-09-19T08:36:55;18.00;99.90
37340;DHT22;23223;51.006;7.610;2023-09-19T08:39:24;18.20;99.90
37340;DHT22;23223;51.006;7.610;2023-09-19T08:42:00;18.40;99.90
37340;DHT22;23223;51.006;7.610;2023-09-19T08:44:27;18.60;99.90
37340;DHT22;23223;51.006;7.610;2023-09-19T08:47:08;18.60;99.90
37340;DHT22;23223;51.006;7.610;2023-09-19T08:50:04;18.60;99.90
37340;DHT22;23223;51.006;7.610;2023-09-19T08:52:43;18.70;99.90
37340;DHT22;23223;51.006;7.610;2023-09-19T08:55:14;19.00;99.90
37340;DHT22;23223;51.006;7.610;2023-09-19T08:57:46;19.20;99.90
37340;DHT22;23223;51.006;7.610;2023-09-19T09:00:15;19.30;99.90
37340;DHT22;23223;51.006;7.610;2023-09-19T09:02:42;19.40;99.90
37340;DHT22;23223;51.006;7.610;2023-09-19T09:05:09;19.60;99.90
37340;DHT22;23223;51.006;7.610;2023-09-19T09:07:40;19.60;99.90
37340;DHT22;23223;51.006;7.610;2023-09-19T09:10:06;19.40;99.90
37340;DHT22;23223;51.006;7.610;2023-09-19T09:12:33;19.50;99.90
37340;DHT22;23223;51.006;7.610;2023-09-19T09:15:02;19.60;99.90
37340;DHT22;23223;51.006;7.610;2023-09-19T09:17:29;19.60;99.90
37340;DHT22;23223;51.006;7.610;2023-09-19T09:19:55;19.60;99.90
37340;DHT22;23223;51.006;7.610;2023-09-19T09:22:21;19.60;99.90
37340;DHT22;23223;51.006;7.610;2023-09-19T09:24:54;19.30;99.90
37340;DHT22;23223;51.006;7.610;2023-09-19T09:27:22;19.20;99.90
37340;DHT22;23223;51.006;7.610;2023-09-19T09:29:50;19.20;99.90
37340;DHT22;23223;51.006;7.610;2023-09-19T09:32:24;19.10;99.90
37340;DHT22;23223;51.006;7.610;2023-09-19T09:34:57;19.00;99.90
37340;DHT22;23223;51.006;7.610;2023-09-19T09:37:24;19.20;99.90
37340;DHT22;23223;51.006;7.610;2023-09-19T09:40:02;19.20;99.90
37340;DHT22;23223;51.006;7.610;2023-09-19T09:42:40;19.30;99.90
37340;DHT22;23223;51.006;7.610;2023-09-19T09:45:23;19.40;99.90
37340;DHT22;23223;51.006;7.610;2023-09-19T09:48:01;19.60;99.90
37340;DHT22;23223;51.006;7.610;2023-09-19T09:50:47;19.70;99.90
37340;DHT22;23223;51.006;7.610;2023-09-19T09:53:29;19.30;99.90
37340;DHT22;23223;51.006;7.610;2023-09-19T09:56:02;19.30;99.90
37340;DHT22;23223;51.006;7.610;2023-09-19T09:58:32;19.70;99.90
37340;DHT22;23223;51.006;7.610;2023-09-19T10:00:59;20.00;99.90
37340;DHT22;23223;51.006;7.610;2023-09-19T10:03:36;19.90;99.90
37340;DHT22;23223;51.006;7.610;2023-09-19T10:06:08;20.00;99.90
37340;DHT22;23223;51.006;7.610;2023-09-19T10:09:00;20.00;96.50
37340;DHT22;23223;51.006;7.610;2023-09-19T10:11:31;20.00;95.70
37340;DHT22;23223;51.006;7.610;2023-09-19T10:13:58;19.80;99.90
37340;DHT22;23223;51.006;7.610;2023-09-19T10:16:29;20.00;94.40
37340;DHT22;23223;51.006;7.610;2023-09-19T10:18:58;20.50;91.40
37340;DHT22;23223;51.006;7.610;2023-09-19T10:21:28;20.50;71.90
37340;DHT22;23223;51.006;7.610;2023-09-19T10:23:58;20.30;93.20
37340;DHT22;23223;51.006;7.610;2023-09-19T10:26:26;20.10;99.90
37340;DHT22;23223;51.006;7.610;2023-09-19T10:28:56;20.10;98.50
37340;DHT22;23223;51.006;7.610;2023-09-19T10:31:26;20.20;99.90
37340;DHT22;23223;51.006;7.610;2023-09-19T10:33:55;20.20;99.90
37340;DHT22;23223;51.006;7.610;2023-09-19T10:36:24;20.30;92.70
37340;DHT22;23223;51.006;7.610;2023-09-19T10:38:53;20.20;76.00
37340;DHT22;23223;51.006;7.610;2023-09-19T10:41:21;20.00;99.90
37340;DHT22;23223;51.006;7.610;2023-09-19T10:43:48;19.90;99.90
37340;DHT22;23223;51.006;7.610;2023-09-19T10:46:14;19.80;98.30
37340;DHT22;23223;51.006;7.610;2023-09-19T10:48:40;20.00;80.70
37340;DHT22;23223;51.006;7.610;2023-09-19T10:51:15;20.00;99.90
37340;DHT22;23223;51.006;7.610;2023-09-19T10:56:29;20.90;93.90
37340;DHT22;23223;51.006;7.610;2023-09-19T10:59:15;21.00;82.20
37340;DHT22;23223;51.006;7.610;2023-09-19T11:01:54;20.90;66.60
37340;DHT22;23223;51.006;7.610;2023-09-19T11:04:30;20.80;44.30
37340;DHT22;23223;51.006;7.610;2023-09-19T11:07:04;20.70;85.40
37340;DHT22;23223;51.006;7.610;2023-09-19T11:09:50;20.50;84.20
37340;DHT22;23223;51.006;7.610;2023-09-19T11:15:02;20.60;92.00
37340;DHT22;23223;51.006;7.610;2023-09-19T11:17:34;20.80;93.00
37340;DHT22;23223;51.006;7.610;2023-09-19T11:30:40;20.90;53.60
37340;DHT22;23223;51.006;7.610;2023-09-19T11:49:18;22.60;21.00
37340;DHT22;23223;51.006;7.610;2023-09-19T11:51:50;22.90;1.00
37340;DHT22;23223;51.006;7.610;2023-09-19T11:54:19;23.20;15.90
37340;DHT22;23223;51.006;7.610;2023-09-19T11:56:49;23.00;1.00
37340;DHT22;23223;51.006;7.610;2023-09-19T11:59:29;22.80;1.00
37340;DHT22;23223;51.006;7.610;2023-09-19T12:02:05;22.80;22.60
37340;DHT22;23223;51.006;7.610;2023-09-19T12:04:40;22.80;1.00
37340;DHT22;23223;51.006;7.610;2023-09-19T12:07:07;22.60;2.40
37340;DHT22;23223;51.006;7.610;2023-09-19T12:09:38;22.30;1.00
37340;DHT22;23223;51.006;7.610;2023-09-19T12:12:05;22.20;14.70
37340;DHT22;23223;51.006;7.610;2023-09-19T12:14:31;21.90;4.50
37340;DHT22;23223;51.006;7.610;2023-09-19T12:16:57;21.30;20.30
37340;DHT22;23223;51.006;7.610;2023-09-19T12:19:25;21.40;23.10
37340;DHT22;23223;51.006;7.610;2023-09-19T12:22:01;21.40;20.70
37340;DHT22;23223;51.006;7.610;2023-09-19T12:24:31;21.60;46.40
37340;DHT22;23223;51.006;7.610;2023-09-19T12:27:01;21.80;20.30
37340;DHT22;23223;51.006;7.610;2023-09-19T12:29:32;21.80;28.50
37340;DHT22;23223;51.006;7.610;2023-09-19T12:32:12;21.90;12.20
37340;DHT22;23223;51.006;7.610;2023-09-19T12:34:40;22.00;1.00
37340;DHT22;23223;51.006;7.610;2023-09-19T12:37:13;22.30;7.80
37340;DHT22;23223;51.006;7.610;2023-09-19T12:39:48;22.70;1.00
37340;DHT22;23223;51.006;7.610;2023-09-19T12:42:16;22.60;1.00
37340;DHT22;23223;51.006;7.610;2023-09-19T12:44:43;22.70;1.00
37340;DHT22;23223;51.006;7.610;2023-09-19T12:47:11;22.80;1.00
37340;DHT22;23223;51.006;7.610;2023-09-19T12:52:50;23.60;1.00
37340;DHT22;23223;51.006;7.610;2023-09-19T12:55:29;24.10;1.00
37340;DHT22;23223;51.006;7.610;2023-09-19T12:58:14;24.50;1.00
37340;DHT22;23223;51.006;7.610;2023-09-19T13:00:45;24.80;1.00
37340;DHT22;23223;51.006;7.610;2023-09-19T13:03:33;25.10;1.00
37340;DHT22;23223;51.006;7.610;2023-09-19T13:06:03;25.00;1.00
37340;DHT22;23223;51.006;7.610;2023-09-19T13:08:34;24.70;1.00
37340;DHT22;23223;51.006;7.610;2023-09-19T13:11:11;24.60;1.00
37340;DHT22;23223;51.006;7.610;2023-09-19T13:14:13;24.80;1.00
37340;DHT22;23223;51.006;7.610;2023-09-19T13:16:58;24.90;1.00
37340;DHT22;23223;51.006;7.610;2023-09-19T13:19:46;25.40;1.00
37340;DHT22;23223;51.006;7.610;2023-09-19T13:22:36;25.40;1.00
37340;DHT22;23223;51.006;7.610;2023-09-19T13:25:16;25.40;1.00
37340;DHT22;23223;51.006;7.610;2023-09-19T13:27:46;25.60;1.00
37340;DHT22;23223;51.006;7.610;2023-09-19T13:30:14;25.50;1.00
37340;DHT22;23223;51.006;7.610;2023-09-19T13:32:40;25.40;1.00
37340;DHT22;23223;51.006;7.610;2023-09-19T13:35:07;25.10;1.00
37340;DHT22;23223;51.006;7.610;2023-09-19T13:37:35;24.50;1.00
37340;DHT22;23223;51.006;7.610;2023-09-19T13:40:07;24.00;1.00
37340;DHT22;23223;51.006;7.610;2023-09-19T13:42:33;23.60;1.00
37340;DHT22;23223;51.006;7.610;2023-09-19T13:44:59;23.30;1.00
37340;DHT22;23223;51.006;7.610;2023-09-19T13:47:24;23.20;1.00
37340;DHT22;23223;51.006;7.610;2023-09-19T13:49:52;22.80;1.00
37340;DHT22;23223;51.006;7.610;2023-09-19T13:52:19;23.30;1.00
37340;DHT22;23223;51.006;7.610;2023-09-19T13:54:45;23.50;1.00
37340;DHT22;23223;51.006;7.610;2023-09-19T13:57:10;24.00;1.00
37340;DHT22;23223;51.006;7.610;2023-09-19T13:59:36;24.20;1.00
37340;DHT22;23223;51.006;7.610;2023-09-19T14:02:04;24.50;1.00
37340;DHT22;23223;51.006;7.610;2023-09-19T14:04:31;24.80;1.00
37340;DHT22;23223;51.006;7.610;2023-09-19T14:06:57;24.80;1.00
37340;DHT22;23223;51.006;7.610;2023-09-19T14:09:23;24.80;1.00
37340;DHT22;23223;51.006;7.610;2023-09-19T14:11:50;25.30;1.00
37340;DHT22;23223;51.006;7.610;2023-09-19T14:14:21;25.50;1.00
37340;DHT22;23223;51.006;7.610;2023-09-19T14:16:50;25.40;1.00
37340;DHT22;23223;51.006;7.610;2023-09-19T14:19:16;24.90;1.00
37340;DHT22;23223;51.006;7.610;2023-09-19T14:21:42;24.60;1.00
37340;DHT22;23223;51.006;7.610;2023-09-19T14:24:08;24.90;1.00
37340;DHT22;23223;51.006;7.610;2023-09-19T14:26:41;25.10;1.00
37340;DHT22;23223;51.006;7.610;2023-09-19T14:29:06;24.70;1.00
37340;DHT22;23223;51.006;7.610;2023-09-19T14:31:38;24.30;1.00
37340;DHT22;23223;51.006;7.610;2023-09-19T14:34:06;23.90;1.00
37340;DHT22;23223;51.006;7.610;2023-09-19T14:36:32;24.00;1.00
37340;DHT22;23223;51.006;7.610;2023-09-19T14:39:01;24.20;1.00
37340;DHT22;23223;51.006;7.610;2023-09-19T14:41:27;24.60;1.00
37340;DHT22;23223;51.006;7.610;2023-09-19T14:43:53;24.90;1.00
37340;DHT22;23223;51.006;7.610;2023-09-19T14:46:21;25.00;1.00
37340;DHT22;23223;51.006;7.610;2023-09-19T14:48:47;24.60;1.00
37340;DHT22;23223;51.006;7.610;2023-09-19T14:51:13;24.10;1.00
37340;DHT22;23223;51.006;7.610;2023-09-19T14:53:39;23.50;1.00
37340;DHT22;23223;51.006;7.610;2023-09-19T14:56:07;23.40;1.00
37340;DHT22;23223;51.006;7.610;2023-09-19T14:58:34;23.10;1.00
37340;DHT22;23223;51.006;7.610;2023-09-19T15:01:10;23.10;1.00
37340;DHT22;23223;51.006;7.610;2023-09-19T15:03:37;22.80;1.00
37340;DHT22;23223;51.006;7.610;2023-09-19T15:06:06;22.50;1.00
37340;DHT22;23223;51.006;7.610;2023-09-19T15:08:36;22.10;1.00
37340;DHT22;23223;51.006;7.610;2023-09-19T15:11:09;21.80;1.00
37340;DHT22;23223;51.006;7.610;2023-09-19T15:13:37;21.50;1.00
37340;DHT22;23223;51.006;7.610;2023-09-19T15:16:05;21.50;1.00
37340;DHT22;23223;51.006;7.610;2023-09-19T15:18:38;21.20;1.50
37340;DHT22;23223;51.006;7.610;2023-09-19T15:21:05;21.20;7.90
37340;DHT22;23223;51.006;7.610;2023-09-19T15:23:34;21.20;22.80
37340;DHT22;23223;51.006;7.610;2023-09-19T15:26:06;21.30;6.60
37340;DHT22;23223;51.006;7.610;2023-09-19T15:28:32;21.40;12.10
37340;DHT22;23223;51.006;7.610;2023-09-19T15:31:05;21.50;16.00
37340;DHT22;23223;51.006;7.610;2023-09-19T15:33:32;21.50;17.20
37340;DHT22;23223;51.006;7.610;2023-09-19T15:36:07;21.60;14.80
37340;DHT22;23223;51.006;7.610;2023-09-19T15:39:02;21.60;1.70
37340;DHT22;23223;51.006;7.610;2023-09-19T15:41:33;21.50;10.00
37340;DHT22;23223;51.006;7.610;2023-09-19T15:44:01;21.40;24.70
37340;DHT22;23223;51.006;7.610;2023-09-19T15:46:27;21.40;9.70
37340;DHT22;23223;51.006;7.610;2023-09-19T15:48:54;21.30;16.30
37340;DHT22;23223;51.006;7.610;2023-09-19T15:51:20;21.10;5.20
37340;DHT22;23223;51.006;7.610;2023-09-19T15:53:53;20.80;22.20
37340;DHT22;23223;51.006;7.610;2023-09-19T15:56:20;20.70;22.70
37340;DHT22;23223;51.006;7.610;2023-09-19T15:58:49;20.70;30.60
37340;DHT22;23223;51.006;7.610;2023-09-19T16:01:16;20.70;24.10
37340;DHT22;23223;51.006;7.610;2023-09-19T16:03:49;20.50;29.60
37340;DHT22;23223;51.006;7.610;2023-09-19T16:06:19;20.30;43.00
37340;DHT22;23223;51.006;7.610;2023-09-19T16:08:48;20.20;36.80
37340;DHT22;23223;51.006;7.610;2023-09-19T16:11:15;20.00;46.20
37340;DHT22;23223;51.006;7.610;2023-09-19T16:13:41;19.90;51.50
37340;DHT22;23223;51.006;7.610;2023-09-19T16:16:11;19.70;55.10
37340;DHT22;23223;51.006;7.610;2023-09-19T16:18:48;19.80;55.20
37340;DHT22;23223;51.006;7.610;2023-09-19T16:21:14;19.80;52.40
37340;DHT22;23223;51.006;7.610;2023-09-19T16:23:40;19.80;50.50
37340;DHT22;23223;51.006;7.610;2023-09-19T16:26:08;19.80;52.80
37340;DHT22;23223;51.006;7.610;2023-09-19T16:28:37;19.80;48.30